createdAt,value
2022-09-20T00:01:08.046Z,5.30
2022-09-20T00:03:36.956Z,5.40
2022-09-20T00:06:05.374Z,5.40
2022-09-20T00:08:32.893Z,5.40
2022-09-20T00:11:02.319Z,5.40
2022-09-20T00:13:30.344Z,5.40
2022-09-20T00:15:57.703Z,5.30
2022-09-20T00:18:24.777Z,5.20
2022-09-20T00:20:52.029Z,5.20
2022-09-20T00:23:19.931Z,5.10
2022-09-20T00:25:56.037Z,5.10
2022-09-20T00:28:23.107Z,5.10
2022-09-20T00:30:50.844Z,5.10
2022-09-20T00:33:17.580Z,5.10
2022-09-20T00:35:45.880Z,5.10
2022-09-20T00:38:16.008Z,5.10
2022-09-20T00:40:44.834Z,5.10
2022-09-20T00:43:16.988Z,5.10
2022-09-20T00:45:49.495Z,5.10
2022-09-20T00:48:26.157Z,5.10
2022-09-20T00:50:59.665Z,5.10
2022-09-20T00:53:33.809Z,5.10
2022-09-20T00:56:14.566Z,5.10
2022-09-20T00:58:49.481Z,5.10
2022-09-20T01:01:17.171Z,5.10
2022-09-20T01:03:45.103Z,5.10
2022-09-20T01:06:15.422Z,5.10
2022-09-20T01:08:45.692Z,5.10
2022-09-20T01:11:12.661Z,5.10
2022-09-20T01:13:39.473Z,5.10
2022-09-20T01:16:08.509Z,5.00
2022-09-20T01:18:37.665Z,5.00
2022-09-20T01:21:06.406Z,5.00
2022-09-20T01:23:58.726Z,4.90
2022-09-20T01:26:58.128Z,4.90
2022-09-20T01:30:02.751Z,5.10
2022-09-20T01:32:55.285Z,4.90
2022-09-20T01:35:25.329Z,4.80
2022-09-20T01:38:10.121Z,4.80
2022-09-20T01:40:49.548Z,4.80
2022-09-20T01:43:40.791Z,4.70
2022-09-20T01:46:31.287Z,4.70
2022-09-20T01:49:22.733Z,4.70
2022-09-20T01:52:27.320Z,4.70
2022-09-20T01:55:14.749Z,4.70
2022-09-20T01:57:59.756Z,4.70
2022-09-20T02:00:31.842Z,4.60
2022-09-20T02:03:26.561Z,4.60
2022-09-20T02:06:13.176Z,4.60
2022-09-20T02:09:14.947Z,4.60
2022-09-20T02:12:10.213Z,4.50
2022-09-20T02:14:49.756Z,4.50
2022-09-20T02:17:22.778Z,4.50
2022-09-20T02:20:10.719Z,4.50
2022-09-20T02:23:01.171Z,4.50
2022-09-20T02:25:53.074Z,4.40
2022-09-20T02:28:43.169Z,4.40
2022-09-20T02:31:47.618Z,4.40
2022-09-20T02:34:46.702Z,4.40
2022-09-20T02:37:22.514Z,4.30
2022-09-20T02:40:20.117Z,4.30
2022-09-20T02:43:04.268Z,4.20
2022-09-20T02:45:58.941Z,4.20
2022-09-20T02:48:47.919Z,4.10
2022-09-20T02:51:28.366Z,4.10
2022-09-20T02:54:01.362Z,4.10
2022-09-20T02:56:34.649Z,4.10
2022-09-20T02:59:19.125Z,4.10
2022-09-20T03:02:25.278Z,4.10
2022-09-20T03:05:11.558Z,4.10
2022-09-20T03:08:04.146Z,4.10
2022-09-20T03:11:08.747Z,4.10
2022-09-20T03:13:58.737Z,4.10
2022-09-20T03:16:51.327Z,4.10
2022-09-20T03:20:00.761Z,4.10
2022-09-20T03:22:45.785Z,4.10
2022-09-20T03:25:47.076Z,4.00
2022-09-20T03:28:25.937Z,4.00
2022-09-20T03:31:05.211Z,4.00
2022-09-20T03:34:02.892Z,4.00
2022-09-20T03:36:35.810Z,4.00
2022-09-20T03:39:41.139Z,4.00
2022-09-20T03:42:17.894Z,4.00
2022-09-20T03:45:06.143Z,3.90
2022-09-20T03:47:44.960Z,3.90
2022-09-20T03:50:12.025Z,3.90
2022-09-20T03:53:12.103Z,3.90
2022-09-20T03:55:57.807Z,3.90
2022-09-20T03:59:10.714Z,3.90
2022-09-20T04:01:46.738Z,3.90
2022-09-20T04:04:32.139Z,3.80
2022-09-20T04:07:18.595Z,3.80
2022-09-20T04:10:24.205Z,3.80
2022-09-20T04:12:57.193Z,3.80
2022-09-20T04:15:40.285Z,3.70
2022-09-20T04:18:40.713Z,3.70
2022-09-20T04:21:23.691Z,3.70
2022-09-20T04:24:09.237Z,3.70
2022-09-20T04:26:43.409Z,3.80
2022-09-20T04:29:40.825Z,3.80
2022-09-20T04:32:14.380Z,3.80
2022-09-20T04:35:28.981Z,3.80
2022-09-20T04:37:56.420Z,3.80
2022-09-20T04:40:26.691Z,3.80
2022-09-20T04:43:24.314Z,3.80
2022-09-20T04:45:54.003Z,3.80
2022-09-20T04:48:20.842Z,3.70
2022-09-20T04:51:45.856Z,3.80
2022-09-20T04:54:25.472Z,3.80
2022-09-20T04:57:01.560Z,3.70
2022-09-20T05:00:12.890Z,3.70
2022-09-20T05:02:46.981Z,3.70
2022-09-20T05:05:38.522Z,3.60
2022-09-20T05:08:21.234Z,3.60
2022-09-20T05:11:09.780Z,3.60
2022-09-20T05:13:40.461Z,3.50
2022-09-20T05:16:27.680Z,3.50
2022-09-20T05:19:39.664Z,3.50
2022-09-20T05:22:27.639Z,3.60
2022-09-20T05:25:09.048Z,3.60
2022-09-20T05:27:45.485Z,3.60
2022-09-20T05:30:38.350Z,3.70
2022-09-20T05:33:24.851Z,3.70
2022-09-20T05:36:17.083Z,3.60
2022-09-20T05:39:10.935Z,3.50
2022-09-20T05:42:03.616Z,3.50
2022-09-20T05:44:42.585Z,3.50
2022-09-20T05:47:22.245Z,3.50
2022-09-20T05:50:20.116Z,3.50
2022-09-20T05:52:50.052Z,3.60
2022-09-20T05:55:24.793Z,3.60
2022-09-20T05:58:10.599Z,3.60
2022-09-20T06:00:53.306Z,3.70
2022-09-20T06:03:23.202Z,3.80
2022-09-20T06:06:07.483Z,3.90
2022-09-20T06:08:57.770Z,4.00
2022-09-20T06:11:48.885Z,4.00
2022-09-20T06:15:01.923Z,5.60
2022-09-20T06:17:42.468Z,4.20
2022-09-20T06:20:37.666Z,4.30
2022-09-20T06:23:05.977Z,4.30
2022-09-20T06:25:44.532Z,4.40
2022-09-20T06:28:18.798Z,4.50
2022-09-20T06:30:50.207Z,4.60
2022-09-20T06:33:23.885Z,4.70
2022-09-20T06:36:33.593Z,5.10
2022-09-20T06:39:37.362Z,5.60
2022-09-20T06:42:04.511Z,6.30
2022-09-20T06:44:31.431Z,6.90
2022-09-20T06:46:59.067Z,7.40
2022-09-20T06:49:29.140Z,7.90
2022-09-20T06:51:56.648Z,8.40
2022-09-20T06:54:23.645Z,8.80
2022-09-20T06:56:51.367Z,9.20
2022-09-20T06:59:18.470Z,9.60
2022-09-20T07:01:45.439Z,9.90
2022-09-20T07:04:12.391Z,10.40
2022-09-20T07:06:39.899Z,10.80
2022-09-20T07:09:07.250Z,10.90
2022-09-20T07:11:34.959Z,10.80
2022-09-20T07:14:02.277Z,10.60
2022-09-20T07:16:29.701Z,10.40
2022-09-20T07:18:56.965Z,10.30
2022-09-20T07:21:24.276Z,10.10
2022-09-20T07:23:51.585Z,10.00
2022-09-20T07:26:25.827Z,9.80
2022-09-20T07:28:53.119Z,9.60
2022-09-20T07:31:22.927Z,9.40
2022-09-20T07:33:50.268Z,9.30
2022-09-20T07:36:17.909Z,9.30
2022-09-20T07:38:50.159Z,9.30
2022-09-20T07:41:19.135Z,9.30
2022-09-20T07:43:46.758Z,9.50
2022-09-20T07:46:13.708Z,9.60
2022-09-20T07:48:41.073Z,9.70
2022-09-20T07:51:11.139Z,9.80
2022-09-20T07:53:40.045Z,10.00
2022-09-20T07:56:15.460Z,10.20
2022-09-20T07:58:47.393Z,10.50
2022-09-20T08:01:19.962Z,11.00
2022-09-20T08:03:47.052Z,11.50
2022-09-20T08:06:18.499Z,12.10
2022-09-20T08:08:49.370Z,12.70
2022-09-20T08:11:19.043Z,13.30
2022-09-20T08:14:09.619Z,13.80
2022-09-20T08:16:42.025Z,14.30
2022-09-20T08:19:13.798Z,14.90
2022-09-20T08:21:41.046Z,15.50
2022-09-20T08:24:08.059Z,15.90
2022-09-20T08:26:37.566Z,16.20
2022-09-20T08:29:06.020Z,16.50
2022-09-20T08:31:35.411Z,16.70
2022-09-20T08:34:04.778Z,16.90
2022-09-20T08:36:36.313Z,17.10
2022-09-20T08:42:21.727Z,17.30
2022-09-20T08:44:58.817Z,17.10
2022-09-20T08:47:33.200Z,17.00
2022-09-20T08:50:09.014Z,17.00
2022-09-20T08:52:39.906Z,16.50
2022-09-20T08:55:18.583Z,15.90
2022-09-20T08:57:53.907Z,15.30
2022-09-20T09:00:26.696Z,14.90
2022-09-20T09:03:00.270Z,14.40
2022-09-20T09:05:37.706Z,13.80
2022-09-20T09:08:16.340Z,13.60
2022-09-20T09:10:52.562Z,13.20
2022-09-20T09:13:26.403Z,13.00
2022-09-20T09:15:58.864Z,13.00
2022-09-20T09:18:32.425Z,13.00
2022-09-20T09:21:00.208Z,13.00
2022-09-20T09:23:27.857Z,13.00
2022-09-20T09:25:55.950Z,12.90
2022-09-20T09:28:26.717Z,12.90
2022-09-20T09:31:11.588Z,12.90
2022-09-20T09:33:45.188Z,12.90
2022-09-20T09:36:30.245Z,12.60
2022-09-20T09:39:23.830Z,12.40
2022-09-20T09:41:51.146Z,12.40
2022-09-20T09:44:24.491Z,12.40
2022-09-20T09:46:53.584Z,12.60
2022-09-20T09:49:25.470Z,12.60
2022-09-20T09:52:11.874Z,12.40
2022-09-20T09:54:42.999Z,12.10
2022-09-20T09:57:33.020Z,11.80
2022-09-20T10:00:19.756Z,11.60
2022-09-20T10:03:06.920Z,11.80
2022-09-20T10:05:55.750Z,12.00
2022-09-20T10:08:44.326Z,12.20
2022-09-20T10:11:29.240Z,12.30
2022-09-20T10:14:40.375Z,12.70
2022-09-20T10:17:38.680Z,13.00
2022-09-20T10:20:31.188Z,12.90
2022-09-20T10:23:45.478Z,12.90
2022-09-20T10:26:20.723Z,13.00
2022-09-20T10:29:02.800Z,13.10
2022-09-20T10:32:15.476Z,12.90
2022-09-20T10:34:55.942Z,12.60
2022-09-20T10:38:05.204Z,12.50
2022-09-20T10:40:52.121Z,12.50
2022-09-20T10:43:34.761Z,12.60
2022-09-20T10:46:33.233Z,12.50
2022-09-20T10:49:20.639Z,12.50
2022-09-20T10:52:08.427Z,12.40
2022-09-20T10:55:16.730Z,12.30
2022-09-20T10:58:04.030Z,12.30
2022-09-20T11:00:41.788Z,12.50
2022-09-20T11:03:18.559Z,12.60
2022-09-20T11:05:54.414Z,12.60
2022-09-20T11:08:26.315Z,12.50
2022-09-20T11:11:06.002Z,12.40
2022-09-20T11:13:51.027Z,12.50
2022-09-20T11:16:37.028Z,12.60
2022-09-20T11:19:31.422Z,12.80
2022-09-20T11:22:09.933Z,12.90
2022-09-20T11:24:52.652Z,12.80
2022-09-20T11:27:32.040Z,12.80
2022-09-20T11:30:16.992Z,12.60
2022-09-20T11:33:06.132Z,12.40
2022-09-20T11:35:48.378Z,12.50
2022-09-20T11:38:37.684Z,12.40
2022-09-20T11:41:16.303Z,12.20
2022-09-20T11:43:46.009Z,12.20
2022-09-20T11:46:34.728Z,12.00
2022-09-20T11:49:13.579Z,12.00
2022-09-20T11:51:51.549Z,12.00
2022-09-20T11:54:34.279Z,12.00
2022-09-20T11:57:01.316Z,12.00
2022-09-20T11:59:40.405Z,12.10
2022-09-20T12:02:45.741Z,12.40
2022-09-20T12:05:33.837Z,12.70
2022-09-20T12:08:03.620Z,12.70
2022-09-20T12:10:39.048Z,12.90
2022-09-20T12:13:07.605Z,13.00
2022-09-20T12:15:39.235Z,13.10
2022-09-20T12:18:33.182Z,13.00
2022-09-20T12:21:15.352Z,13.00
2022-09-20T12:24:10.273Z,13.00
2022-09-20T12:26:40.198Z,12.90
2022-09-20T12:29:25.473Z,12.90
2022-09-20T12:32:03.220Z,13.10
2022-09-20T12:34:35.966Z,13.40
2022-09-20T12:37:04.698Z,13.60
2022-09-20T12:39:52.261Z,13.80
2022-09-20T12:42:19.160Z,13.90
2022-09-20T12:45:00.180Z,14.00
2022-09-20T12:47:31.615Z,14.30
2022-09-20T12:50:19.066Z,14.40
2022-09-20T12:52:58.053Z,14.40
2022-09-20T12:55:46.382Z,14.40
2022-09-20T12:58:13.314Z,14.30
2022-09-20T13:00:48.334Z,13.90
2022-09-20T13:03:15.250Z,13.50
2022-09-20T13:05:47.735Z,13.10
2022-09-20T13:08:28.540Z,13.00
2022-09-20T13:11:12.561Z,12.90
2022-09-20T13:14:00.507Z,13.00
2022-09-20T13:16:37.063Z,12.90
2022-09-20T13:19:10.066Z,12.90
2022-09-20T13:21:40.634Z,13.20
2022-09-20T13:24:12.257Z,13.50
2022-09-20T13:26:45.730Z,13.70
2022-09-20T13:29:40.698Z,13.90
2022-09-20T13:32:29.830Z,13.90
2022-09-20T13:35:21.588Z,13.70
2022-09-20T13:38:04.975Z,13.30
2022-09-20T13:40:38.532Z,13.40
2022-09-20T13:43:27.745Z,13.30
2022-09-20T13:45:59.760Z,13.10
2022-09-20T13:48:29.113Z,12.90
2022-09-20T13:50:57.447Z,12.80
2022-09-20T13:53:42.629Z,12.70
2022-09-20T13:56:17.259Z,12.70
2022-09-20T13:58:44.323Z,12.80
2022-09-20T14:01:31.160Z,12.70
2022-09-20T14:04:07.844Z,12.60
2022-09-20T14:06:35.636Z,12.50
2022-09-20T14:09:10.501Z,12.50
2022-09-20T14:11:39.315Z,12.50
2022-09-20T14:14:08.087Z,12.50
2022-09-20T14:16:39.870Z,12.70
2022-09-20T14:19:08.348Z,12.90
2022-09-20T14:21:37.232Z,13.00
2022-09-20T14:24:14.341Z,13.30
2022-09-20T14:26:43.271Z,13.60
2022-09-20T14:29:35.227Z,13.70
2022-09-20T14:32:22.583Z,13.70
2022-09-20T14:34:56.006Z,13.70
2022-09-20T14:37:32.476Z,13.70
2022-09-20T14:40:03.102Z,13.80
2022-09-20T14:42:43.736Z,13.90
2022-09-20T14:45:31.617Z,13.90
2022-09-20T14:48:00.467Z,13.90
2022-09-20T14:50:27.511Z,13.80
2022-09-20T14:53:10.982Z,13.90
2022-09-20T14:55:55.779Z,14.00
2022-09-20T14:58:24.731Z,14.10
2022-09-20T15:00:57.333Z,14.10
2022-09-20T15:03:31.037Z,14.00
2022-09-20T15:05:58.373Z,13.80
2022-09-20T15:08:25.674Z,13.80
2022-09-20T15:10:52.753Z,13.60
2022-09-20T15:13:19.625Z,13.50
2022-09-20T15:15:52.721Z,13.40
2022-09-20T15:18:27.884Z,13.40
2022-09-20T15:20:55.402Z,13.40
2022-09-20T15:23:22.597Z,13.40
2022-09-20T15:25:54.491Z,13.30
2022-09-20T15:28:22.089Z,13.20
2022-09-20T15:30:51.229Z,13.00
2022-09-20T15:33:21.805Z,13.00
2022-09-20T15:35:49.164Z,13.10
2022-09-20T15:38:19.534Z,13.00
2022-09-20T15:40:48.911Z,12.90
2022-09-20T15:43:19.532Z,12.90
2022-09-20T15:45:55.321Z,12.80
2022-09-20T15:48:24.887Z,12.80
2022-09-20T15:51:01.892Z,12.80
2022-09-20T15:53:31.744Z,13.00
2022-09-20T15:56:02.872Z,13.20
2022-09-20T15:58:36.341Z,13.10
2022-09-20T16:01:08.526Z,12.90
2022-09-20T16:03:36.515Z,12.80
2022-09-20T16:06:08.194Z,12.70
2022-09-20T16:08:40.777Z,12.60
2022-09-20T16:11:09.099Z,12.60
2022-09-20T16:13:37.609Z,12.70
2022-09-20T16:16:06.310Z,12.60
2022-09-20T16:18:51.700Z,12.70
2022-09-20T16:21:19.724Z,12.60
2022-09-20T16:23:49.467Z,12.70
2022-09-20T16:26:17.369Z,12.60
2022-09-20T16:28:47.541Z,12.50
2022-09-20T16:31:42.578Z,12.40
2022-09-20T16:34:17.054Z,12.30
2022-09-20T16:36:44.381Z,12.20
2022-09-20T16:39:12.559Z,12.10
2022-09-20T16:41:39.650Z,12.70
2022-09-20T16:44:07.488Z,12.10
2022-09-20T16:46:37.126Z,12.00
2022-09-20T16:49:09.593Z,12.00
2022-09-20T16:51:40.172Z,12.00
2022-09-20T16:54:13.049Z,11.90
2022-09-20T16:56:43.441Z,11.90
2022-09-20T16:59:11.744Z,11.90
2022-09-20T17:01:40.321Z,11.90
2022-09-20T17:04:08.436Z,11.90
2022-09-20T17:06:37.197Z,11.80
2022-09-20T17:09:06.282Z,11.80
2022-09-20T17:11:36.739Z,11.90
2022-09-20T17:14:04.395Z,12.00
2022-09-20T17:16:34.248Z,12.00
2022-09-20T17:19:06.073Z,11.90
2022-09-20T17:21:35.992Z,12.00
2022-09-20T17:24:05.128Z,12.00
2022-09-20T17:26:34.228Z,11.90
2022-09-20T17:29:03.766Z,11.90
2022-09-20T17:31:36.217Z,11.80
2022-09-20T17:34:07.382Z,11.70
2022-09-20T17:36:39.614Z,11.70
2022-09-20T17:39:10.920Z,11.60
2022-09-20T17:41:41.638Z,11.50
2022-09-20T17:44:10.077Z,11.50
2022-09-20T17:46:38.984Z,11.40
2022-09-20T17:49:13.986Z,11.40
2022-09-20T17:51:43.098Z,11.30
2022-09-20T17:54:13.910Z,11.30
2022-09-20T17:56:43.491Z,11.30
2022-09-20T17:59:12.200Z,11.30
2022-09-20T18:01:40.517Z,11.30
2022-09-20T18:04:08.907Z,11.30
2022-09-20T18:06:38.204Z,11.30
2022-09-20T18:09:07.019Z,11.30
2022-09-20T18:11:38.154Z,11.30
2022-09-20T18:14:07.213Z,11.30
2022-09-20T18:16:35.187Z,11.30
2022-09-20T18:19:02.254Z,11.20
2022-09-20T18:21:31.204Z,11.20
2022-09-20T18:23:59.059Z,11.30
2022-09-20T18:26:30.144Z,11.10
2022-09-20T18:29:10.082Z,11.10
2022-09-20T18:31:39.856Z,11.20
2022-09-20T18:34:09.907Z,11.00
2022-09-20T18:36:39.712Z,11.00
2022-09-20T18:39:07.382Z,11.00
2022-09-20T18:41:37.303Z,11.00
2022-09-20T18:44:07.192Z,11.00
2022-09-20T18:46:38.049Z,11.00
2022-09-20T18:49:09.423Z,11.00
2022-09-20T18:51:39.939Z,10.90
2022-09-20T18:54:10.018Z,10.80
2022-09-20T18:56:48.893Z,10.80
2022-09-20T18:59:34.007Z,10.80
2022-09-20T19:02:09.990Z,10.70
2022-09-20T19:04:55.049Z,10.70
2022-09-20T19:07:28.263Z,10.60
2022-09-20T19:10:24.223Z,10.50
2022-09-20T19:13:23.756Z,12.20
2022-09-20T19:16:10.218Z,10.40
2022-09-20T19:19:07.800Z,10.30
2022-09-20T19:21:41.538Z,10.20
2022-09-20T19:24:14.411Z,10.20
2022-09-20T19:26:42.135Z,10.20
2022-09-20T19:29:37.056Z,10.10
2022-09-20T19:32:04.571Z,10.10
2022-09-20T19:34:32.857Z,10.00
2022-09-20T19:37:21.988Z,10.00
2022-09-20T19:39:54.957Z,10.00
2022-09-20T19:42:36.096Z,10.00
2022-09-20T19:45:31.344Z,10.00
2022-09-20T19:48:07.295Z,10.00
2022-09-20T19:50:47.628Z,10.00
2022-09-20T19:53:16.913Z,10.00
2022-09-20T19:55:52.049Z,10.00
2022-09-20T19:58:19.377Z,10.10
2022-09-20T20:00:47.538Z,10.10
2022-09-20T20:03:15.920Z,10.20
2022-09-20T20:06:02.396Z,10.20
2022-09-20T20:08:38.463Z,10.30
2022-09-20T20:11:32.458Z,10.30
2022-09-20T20:14:25.510Z,10.30
2022-09-20T20:16:58.360Z,10.40
2022-09-20T20:19:43.543Z,10.30
2022-09-20T20:22:35.863Z,10.40
2022-09-20T20:25:03.084Z,10.40
2022-09-20T20:27:31.357Z,10.40
2022-09-20T20:29:58.248Z,10.40
2022-09-20T20:32:26.235Z,10.40
2022-09-20T20:34:53.124Z,10.40
2022-09-20T20:37:23.960Z,10.40
2022-09-20T20:39:50.865Z,10.30
2022-09-20T20:42:17.834Z,10.30
2022-09-20T20:44:45.442Z,10.30
2022-09-20T20:47:13.425Z,10.20
2022-09-20T20:49:40.489Z,10.10
2022-09-20T20:52:08.908Z,10.10
2022-09-20T20:54:35.893Z,10.10
2022-09-20T20:57:03.358Z,10.10
2022-09-20T20:59:30.555Z,10.10
2022-09-20T21:01:57.487Z,10.10
2022-09-20T21:04:25.441Z,10.10
2022-09-20T21:06:52.304Z,10.10
2022-09-20T21:09:19.198Z,10.10
2022-09-20T21:11:48.367Z,10.10
2022-09-20T21:14:15.844Z,10.10
2022-09-20T21:16:43.466Z,10.10
2022-09-20T21:19:15.875Z,10.10
2022-09-20T21:21:44.914Z,10.00
2022-09-20T21:24:14.762Z,10.00
2022-09-20T21:26:41.674Z,10.00
2022-09-20T21:29:11.375Z,10.00
2022-09-20T21:31:40.398Z,9.90
2022-09-20T21:34:09.405Z,9.90
2022-09-20T21:36:38.228Z,9.80
2022-09-20T21:39:05.880Z,9.90
2022-09-20T21:41:37.741Z,9.80
2022-09-20T21:44:06.509Z,9.80
2022-09-20T21:46:42.916Z,9.80
2022-09-20T21:49:11.647Z,9.80
2022-09-20T21:51:41.956Z,9.80
2022-09-20T21:54:09.040Z,9.70
2022-09-20T21:56:37.243Z,9.70
2022-09-20T21:59:06.352Z,9.70
2022-09-20T22:01:36.387Z,9.70
2022-09-20T22:04:09.382Z,9.70
2022-09-20T22:06:38.954Z,9.60
2022-09-20T22:09:11.121Z,9.60
2022-09-20T22:11:41.623Z,9.50
2022-09-20T22:14:09.844Z,9.50
2022-09-20T22:16:39.219Z,9.50
2022-09-20T22:19:10.710Z,9.50
2022-09-20T22:21:46.618Z,9.50
2022-09-20T22:24:14.450Z,9.50
2022-09-20T22:26:44.066Z,9.40
2022-09-20T22:29:10.913Z,9.30
2022-09-20T22:31:44.760Z,9.20
2022-09-20T22:34:15.534Z,9.20
2022-09-20T22:36:43.354Z,9.20
2022-09-20T22:39:11.423Z,9.10
2022-09-20T22:41:39.524Z,9.10
2022-09-20T22:44:06.468Z,9.20
2022-09-20T22:46:34.216Z,9.20
2022-09-20T22:49:01.228Z,9.20
2022-09-20T22:51:33.531Z,9.20
2022-09-20T22:54:04.324Z,9.20
2022-09-20T22:56:31.385Z,9.20
2022-09-20T22:59:05.798Z,9.20
2022-09-20T23:01:39.629Z,9.20
2022-09-20T23:04:09.314Z,9.20
2022-09-20T23:06:41.544Z,9.20
2022-09-20T23:09:11.232Z,9.20
2022-09-20T23:11:39.744Z,9.10
2022-09-20T23:14:06.813Z,9.10
2022-09-20T23:16:38.078Z,9.10
2022-09-20T23:19:06.400Z,9.10
2022-09-20T23:21:34.259Z,9.00
2022-09-20T23:24:03.223Z,9.00
2022-09-20T23:26:33.057Z,8.90
2022-09-20T23:29:05.502Z,8.90
2022-09-20T23:31:34.652Z,8.90
2022-09-20T23:34:03.963Z,8.80
2022-09-20T23:36:33.286Z,8.80
2022-09-20T23:39:00.396Z,8.70
2022-09-20T23:41:28.960Z,8.60
2022-09-20T23:43:56.245Z,8.60
2022-09-20T23:46:25.307Z,8.50
2022-09-20T23:48:52.682Z,8.50
2022-09-20T23:51:22.886Z,8.40
2022-09-20T23:53:51.084Z,8.40
2022-09-20T23:56:18.921Z,8.30
2022-09-20T23:58:46.549Z,8.20
